createdAt,value
2022-11-17T00:00:21.708Z,9.23
2022-11-17T00:01:18.234Z,9.33
2022-11-17T00:02:04.737Z,9.31
2022-11-17T00:02:51.467Z,9.25
2022-11-17T00:03:38.183Z,9.21
2022-11-17T00:04:27.018Z,9.23
2022-11-17T00:05:14.357Z,9.18
2022-11-17T00:06:05.026Z,9.22
2022-11-17T00:06:51.525Z,9.24
2022-11-17T00:07:38.136Z,9.28
2022-11-17T00:08:24.737Z,9.25
2022-11-17T00:09:17.218Z,9.28
2022-11-17T00:10:03.959Z,9.27
2022-11-17T00:10:50.532Z,9.26
2022-11-17T00:11:55.773Z,9.23
2022-11-17T00:13:00.867Z,9.29
2022-11-17T00:14:05.715Z,9.31
2022-11-17T00:14:52.504Z,9.28
2022-11-17T00:15:43.398Z,9.30
2022-11-17T00:16:29.873Z,9.32
2022-11-17T00:17:17.648Z,9.26
2022-11-17T00:18:22.939Z,9.25
2022-11-17T00:19:28.174Z,9.19
2022-11-17T00:20:34.653Z,9.20
2022-11-17T00:21:23.499Z,9.22
2022-11-17T00:22:10.182Z,9.25
2022-11-17T00:22:56.784Z,9.24
2022-11-17T00:23:50.084Z,9.25
2022-11-17T00:24:37.009Z,9.25
2022-11-17T00:25:23.411Z,9.31
2022-11-17T00:26:10.012Z,9.28
2022-11-17T00:27:02.176Z,9.29
2022-11-17T00:27:48.598Z,9.25
2022-11-17T00:28:35.023Z,9.25
2022-11-17T00:29:21.478Z,9.34
2022-11-17T00:30:08.803Z,9.38
2022-11-17T00:31:14.649Z,9.38
2022-11-17T00:32:20.254Z,9.39
2022-11-17T00:33:26.724Z,9.42
2022-11-17T00:34:16.685Z,9.38
2022-11-17T00:35:04.933Z,9.42
2022-11-17T00:35:54.284Z,9.42
2022-11-17T00:36:46.740Z,9.46
2022-11-17T00:37:37.411Z,9.49
2022-11-17T00:38:24.344Z,9.47
2022-11-17T00:39:13.358Z,9.52
2022-11-17T00:40:01.301Z,9.48
2022-11-17T00:40:48.903Z,9.42
2022-11-17T00:41:36.087Z,9.43
2022-11-17T00:42:22.720Z,9.47
2022-11-17T00:43:09.307Z,9.42
2022-11-17T00:43:55.842Z,9.37
2022-11-17T00:44:42.263Z,9.42
2022-11-17T00:45:28.713Z,9.49
2022-11-17T00:46:15.273Z,9.49
2022-11-17T00:47:01.688Z,9.54
2022-11-17T00:47:48.187Z,9.57
2022-11-17T00:48:34.608Z,9.55
2022-11-17T00:49:25.205Z,9.51
2022-11-17T00:50:11.696Z,9.53
2022-11-17T00:51:04.768Z,9.51
2022-11-17T00:51:56.037Z,9.52
2022-11-17T00:52:42.624Z,9.52
2022-11-17T00:53:29.134Z,9.56
2022-11-17T00:54:15.616Z,9.50
2022-11-17T00:55:02.397Z,9.53
2022-11-17T00:55:48.839Z,9.52
2022-11-17T00:56:35.727Z,9.51
2022-11-17T00:57:22.388Z,9.44
2022-11-17T00:58:08.878Z,9.45
2022-11-17T00:58:55.370Z,9.41
2022-11-17T00:59:41.785Z,9.39
2022-11-17T01:00:28.348Z,9.38
2022-11-17T01:01:15.084Z,9.55
2022-11-17T01:02:01.740Z,9.57
2022-11-17T01:02:48.409Z,9.54
2022-11-17T01:03:36.173Z,9.57
2022-11-17T01:04:22.951Z,9.58
2022-11-17T01:05:09.437Z,9.57
2022-11-17T01:05:55.950Z,9.59
2022-11-17T01:06:48.353Z,9.54
2022-11-17T01:07:34.856Z,9.51
2022-11-17T01:08:21.344Z,9.51
2022-11-17T01:09:13.660Z,9.60
2022-11-17T01:10:00.348Z,9.63
2022-11-17T01:10:46.780Z,9.57
2022-11-17T01:11:33.851Z,9.55
2022-11-17T01:12:20.248Z,9.57
2022-11-17T01:13:06.893Z,9.54
2022-11-17T01:13:56.796Z,9.53
2022-11-17T01:14:43.262Z,9.53
2022-11-17T01:15:29.645Z,9.51
2022-11-17T01:16:18.864Z,9.50
2022-11-17T01:17:05.468Z,9.49
2022-11-17T01:17:51.912Z,9.47
2022-11-17T01:18:39.397Z,9.47
2022-11-17T01:19:26.115Z,9.49
2022-11-17T01:20:12.753Z,9.50
2022-11-17T01:21:10.197Z,9.49
2022-11-17T01:21:56.955Z,9.50
2022-11-17T01:22:43.379Z,9.46
2022-11-17T01:23:30.218Z,9.52
2022-11-17T01:24:17.753Z,9.46
2022-11-17T01:25:05.214Z,9.42
2022-11-17T01:25:51.653Z,9.51
2022-11-17T01:26:40.002Z,9.46
2022-11-17T01:27:26.420Z,9.44
2022-11-17T01:28:12.876Z,9.42
2022-11-17T01:29:01.889Z,9.43
2022-11-17T01:29:48.447Z,9.42
2022-11-17T01:30:34.921Z,9.49
2022-11-17T01:31:27.580Z,9.45
2022-11-17T01:32:14.014Z,9.41
2022-11-17T01:33:00.596Z,9.43
2022-11-17T01:33:47.126Z,9.37
2022-11-17T01:34:33.981Z,9.37
2022-11-17T01:35:20.567Z,9.42
2022-11-17T01:36:12.835Z,9.38
2022-11-17T01:37:18.791Z,9.39
2022-11-17T01:38:05.277Z,9.44
2022-11-17T01:38:52.991Z,9.45
2022-11-17T01:39:39.537Z,9.39
2022-11-17T01:40:26.049Z,9.39
2022-11-17T01:41:17.479Z,9.34
2022-11-17T01:42:14.436Z,9.35
2022-11-17T01:43:00.888Z,9.34
2022-11-17T01:43:56.496Z,9.35
2022-11-17T01:45:04.590Z,9.37
2022-11-17T01:45:51.355Z,9.38
2022-11-17T01:46:40.947Z,9.32
2022-11-17T01:47:45.592Z,9.32
2022-11-17T01:48:32.164Z,9.38
2022-11-17T01:49:27.749Z,9.33
2022-11-17T01:50:26.437Z,9.30
2022-11-17T01:51:16.265Z,9.25
2022-11-17T01:52:22.348Z,9.33
2022-11-17T01:53:15.702Z,9.30
2022-11-17T01:54:03.254Z,9.29
2022-11-17T01:54:50.283Z,9.33
2022-11-17T01:55:59.683Z,9.30
2022-11-17T01:56:51.250Z,9.27
2022-11-17T01:58:02.218Z,9.28
2022-11-17T01:59:11.637Z,9.33
2022-11-17T02:00:05.740Z,9.31
2022-11-17T02:00:56.207Z,9.34
2022-11-17T02:01:56.077Z,9.32
2022-11-17T02:02:45.108Z,9.33
2022-11-17T02:03:34.857Z,9.30
2022-11-17T02:04:36.029Z,9.34
2022-11-17T02:05:22.464Z,9.37
2022-11-17T02:06:16.894Z,9.32
2022-11-17T02:07:13.662Z,9.37
2022-11-17T02:08:38.670Z,9.36
2022-11-17T02:09:26.543Z,9.38
2022-11-17T02:10:13.242Z,9.40
2022-11-17T02:11:03.935Z,9.43
2022-11-17T02:11:51.020Z,9.38
2022-11-17T02:12:38.847Z,9.33
2022-11-17T02:13:27.808Z,9.30
2022-11-17T02:14:15.048Z,9.29
2022-11-17T02:15:04.270Z,9.34
2022-11-17T02:15:50.805Z,9.37
2022-11-17T02:16:37.455Z,9.38
2022-11-17T02:17:37.450Z,9.38
2022-11-17T02:18:24.604Z,9.38
2022-11-17T02:19:16.204Z,9.35
2022-11-17T02:20:12.380Z,9.33
2022-11-17T02:21:04.525Z,9.38
2022-11-17T02:22:03.748Z,9.36
2022-11-17T02:23:08.541Z,9.36
2022-11-17T02:24:13.667Z,9.31
2022-11-17T02:25:09.048Z,9.35
2022-11-17T02:26:38.948Z,9.29
2022-11-17T02:28:00.488Z,9.25
2022-11-17T02:29:19.633Z,9.27
2022-11-17T02:30:12.367Z,9.29
2022-11-17T02:31:25.806Z,9.28
2022-11-17T02:32:36.648Z,9.30
2022-11-17T02:33:42.373Z,9.32
2022-11-17T02:35:01.196Z,9.30
2022-11-17T02:36:03.157Z,9.24
2022-11-17T02:37:02.171Z,9.27
2022-11-17T02:37:55.201Z,9.25
2022-11-17T02:38:54.326Z,9.21
2022-11-17T02:39:49.886Z,9.25
2022-11-17T02:41:08.165Z,9.30
2022-11-17T02:42:08.192Z,9.27
2022-11-17T02:43:19.656Z,9.30
2022-11-17T02:44:32.080Z,9.36
2022-11-17T02:45:30.377Z,9.37
2022-11-17T02:46:21.791Z,9.27
2022-11-17T02:47:37.142Z,9.20
2022-11-17T02:48:30.210Z,9.20
2022-11-17T02:49:25.846Z,9.26
2022-11-17T02:50:13.822Z,9.24
2022-11-17T02:51:03.747Z,9.32
2022-11-17T02:51:54.774Z,9.35
2022-11-17T02:52:41.570Z,9.32
2022-11-17T02:53:30.217Z,9.27
2022-11-17T02:54:18.689Z,9.33
2022-11-17T02:55:11.066Z,9.30
2022-11-17T02:56:01.992Z,9.35
2022-11-17T02:56:48.868Z,9.30
2022-11-17T02:57:37.961Z,9.29
2022-11-17T02:58:24.465Z,9.26
2022-11-17T02:59:15.520Z,9.29
2022-11-17T03:00:06.633Z,9.32
2022-11-17T03:01:27.785Z,9.35
2022-11-17T03:02:20.661Z,9.35
2022-11-17T03:03:29.498Z,9.37
2022-11-17T03:04:37.865Z,9.36
2022-11-17T03:05:46.312Z,9.34
2022-11-17T03:06:57.186Z,9.33
2022-11-17T03:07:59.203Z,9.26
2022-11-17T03:09:00.367Z,9.35
2022-11-17T03:10:14.368Z,9.40
2022-11-17T03:11:05.070Z,9.38
2022-11-17T03:12:17.192Z,9.35
2022-11-17T03:13:18.351Z,9.37
2022-11-17T03:14:15.202Z,9.41
2022-11-17T03:15:28.174Z,9.42
2022-11-17T03:16:45.639Z,9.37
2022-11-17T03:17:53.752Z,9.36
2022-11-17T03:19:07.947Z,9.42
2022-11-17T03:20:08.820Z,9.37
2022-11-17T03:21:20.824Z,9.37
2022-11-17T03:22:14.205Z,9.30
2022-11-17T03:23:17.320Z,9.33
2022-11-17T03:24:28.829Z,9.34
2022-11-17T03:25:20.710Z,9.40
2022-11-17T03:26:17.256Z,9.37
2022-11-17T03:27:24.739Z,9.37
2022-11-17T03:28:16.345Z,9.39
2022-11-17T03:29:09.099Z,9.37
2022-11-17T03:30:02.163Z,9.35
2022-11-17T03:30:52.390Z,9.42
2022-11-17T03:31:43.330Z,9.39
2022-11-17T03:32:36.551Z,9.42
2022-11-17T03:33:26.355Z,9.42
2022-11-17T03:34:18.437Z,9.38
2022-11-17T03:35:20.960Z,9.40
2022-11-17T03:36:14.757Z,9.42
2022-11-17T03:37:06.909Z,9.38
2022-11-17T03:38:04.825Z,9.42
2022-11-17T03:39:10.891Z,9.43
2022-11-17T03:40:10.979Z,9.42
2022-11-17T03:41:03.388Z,9.44
2022-11-17T03:41:58.020Z,9.44
2022-11-17T03:42:52.847Z,9.37
2022-11-17T03:43:45.166Z,9.33
2022-11-17T03:44:36.738Z,9.30
2022-11-17T03:45:33.561Z,9.30
2022-11-17T03:46:25.175Z,9.27
2022-11-17T03:47:16.848Z,9.28
2022-11-17T03:48:22.132Z,9.22
2022-11-17T03:49:42.894Z,9.24
2022-11-17T03:50:39.876Z,9.15
2022-11-17T03:51:30.739Z,9.13
2022-11-17T03:52:18.679Z,9.12
2022-11-17T03:53:07.097Z,9.09
2022-11-17T03:53:54.687Z,9.13
2022-11-17T03:54:41.940Z,9.12
2022-11-17T03:55:40.404Z,9.02
2022-11-17T03:56:48.274Z,9.00
2022-11-17T03:57:40.493Z,8.96
2022-11-17T03:58:33.459Z,8.93
2022-11-17T03:59:30.999Z,8.89
2022-11-17T04:00:19.884Z,8.88
2022-11-17T04:01:09.142Z,8.89
2022-11-17T04:01:56.083Z,8.89
2022-11-17T04:02:49.083Z,8.89
2022-11-17T04:03:35.916Z,8.84
2022-11-17T04:04:23.454Z,8.82
2022-11-17T04:05:12.176Z,8.79
2022-11-17T04:05:58.666Z,8.74
2022-11-17T04:06:45.805Z,8.71
2022-11-17T04:07:40.666Z,8.75
2022-11-17T04:08:30.738Z,8.71
2022-11-17T04:09:24.000Z,8.80
2022-11-17T04:10:14.532Z,8.83
2022-11-17T04:13:39.937Z,8.85
2022-11-17T04:14:45.383Z,8.82
2022-11-17T04:15:52.642Z,8.88
2022-11-17T04:16:40.033Z,8.81
2022-11-17T04:17:26.519Z,8.84
2022-11-17T04:18:14.625Z,8.78
2022-11-17T04:19:01.064Z,8.77
2022-11-17T04:19:48.633Z,8.76
2022-11-17T04:20:37.999Z,8.76
2022-11-17T04:21:24.576Z,8.75
2022-11-17T04:22:10.968Z,8.82
2022-11-17T04:23:07.299Z,8.81
2022-11-17T04:23:54.141Z,8.75
2022-11-17T04:24:40.641Z,8.76
2022-11-17T04:25:47.119Z,8.76
2022-11-17T04:26:52.289Z,8.84
2022-11-17T04:27:57.327Z,8.82
2022-11-17T04:28:47.230Z,8.86
2022-11-17T04:29:34.942Z,8.82
2022-11-17T04:30:21.420Z,8.77
2022-11-17T04:31:10.319Z,8.75
2022-11-17T04:31:56.772Z,8.73
2022-11-17T04:32:43.271Z,8.74
2022-11-17T04:33:29.809Z,8.80
2022-11-17T04:34:16.294Z,8.82
2022-11-17T04:35:02.889Z,8.72
2022-11-17T04:35:50.714Z,8.64
2022-11-17T04:36:44.940Z,8.62
2022-11-17T04:37:31.547Z,8.60
2022-11-17T04:38:17.961Z,8.62
2022-11-17T04:39:04.690Z,8.61
2022-11-17T04:39:51.323Z,8.57
2022-11-17T04:40:57.933Z,8.61
2022-11-17T04:41:54.067Z,8.51
2022-11-17T04:42:40.585Z,8.61
2022-11-17T04:43:27.069Z,8.61
2022-11-17T04:44:17.643Z,8.63
2022-11-17T04:45:04.386Z,8.61
2022-11-17T04:45:52.221Z,8.62
2022-11-17T04:46:40.740Z,8.69
2022-11-17T04:47:27.184Z,8.62
2022-11-17T04:48:13.598Z,8.63
2022-11-17T04:49:01.840Z,8.69
2022-11-17T04:49:48.312Z,8.75
2022-11-17T04:50:34.736Z,8.74
2022-11-17T04:51:22.231Z,8.76
2022-11-17T04:52:08.728Z,8.83
2022-11-17T04:52:55.195Z,8.89
2022-11-17T04:53:42.943Z,8.89
2022-11-17T04:54:29.397Z,8.92
2022-11-17T04:55:15.805Z,8.88
2022-11-17T04:56:04.107Z,8.89
2022-11-17T04:56:52.193Z,8.92
2022-11-17T04:57:38.668Z,8.90
2022-11-17T04:58:25.120Z,8.94
2022-11-17T04:59:11.731Z,8.96
2022-11-17T04:59:58.202Z,8.99
2022-11-17T05:00:44.947Z,8.98
2022-11-17T05:01:32.793Z,9.03
2022-11-17T05:02:19.260Z,9.07
2022-11-17T05:03:05.897Z,9.10
2022-11-17T05:03:58.656Z,9.10
2022-11-17T05:04:57.345Z,9.05
2022-11-17T05:05:47.650Z,9.06
2022-11-17T05:06:42.999Z,9.10
2022-11-17T05:07:29.600Z,9.09
2022-11-17T05:08:16.058Z,9.10
2022-11-17T05:09:10.795Z,9.25
2022-11-17T05:09:57.244Z,9.26
2022-11-17T05:11:02.251Z,9.25
2022-11-17T05:12:07.474Z,9.26
2022-11-17T05:13:12.747Z,9.34
2022-11-17T05:14:00.186Z,9.40
2022-11-17T05:14:48.963Z,9.43
2022-11-17T05:15:54.339Z,9.44
2022-11-17T05:17:04.568Z,9.46
2022-11-17T05:17:54.979Z,9.37
2022-11-17T05:18:43.577Z,9.38
2022-11-17T05:19:35.738Z,9.39
2022-11-17T05:20:23.421Z,9.40
2022-11-17T05:21:11.833Z,9.36
2022-11-17T05:21:58.469Z,9.40
2022-11-17T05:23:06.814Z,9.35
2022-11-17T05:23:56.231Z,9.32
2022-11-17T05:24:42.715Z,9.32
2022-11-17T05:25:29.398Z,9.33
2022-11-17T05:26:16.399Z,9.44
2022-11-17T05:27:02.899Z,9.50
2022-11-17T05:27:49.308Z,9.52
2022-11-17T05:28:35.770Z,9.57
2022-11-17T05:29:23.100Z,9.52
2022-11-17T05:30:10.441Z,9.53
2022-11-17T05:30:56.848Z,9.52
2022-11-17T05:31:43.825Z,9.55
2022-11-17T05:32:30.250Z,9.50
2022-11-17T05:33:16.779Z,9.51
2022-11-17T05:34:06.461Z,9.51
2022-11-17T05:34:53.011Z,9.50
2022-11-17T05:35:39.485Z,9.48
2022-11-17T05:36:28.059Z,9.44
2022-11-17T05:37:15.843Z,9.47
2022-11-17T05:38:02.465Z,9.44
2022-11-17T05:38:52.843Z,9.39
2022-11-17T05:39:42.040Z,9.38
2022-11-17T05:40:28.502Z,9.47
2022-11-17T05:41:16.627Z,9.44
2022-11-17T05:42:03.147Z,9.41
2022-11-17T05:42:53.014Z,9.40
2022-11-17T05:43:44.053Z,9.46
2022-11-17T05:44:30.537Z,9.50
2022-11-17T05:45:17.091Z,9.49
2022-11-17T05:46:03.964Z,9.44
2022-11-17T05:46:50.489Z,9.41
2022-11-17T05:47:36.988Z,9.44
2022-11-17T05:48:27.562Z,9.40
2022-11-17T05:49:14.017Z,9.33
2022-11-17T05:50:00.502Z,9.33
2022-11-17T05:50:47.109Z,9.34
2022-11-17T05:51:33.589Z,9.30
2022-11-17T05:52:20.206Z,9.35
2022-11-17T05:53:27.843Z,9.36
2022-11-17T05:54:14.299Z,9.34
2022-11-17T05:55:00.870Z,9.29
2022-11-17T05:55:48.106Z,9.29
2022-11-17T05:56:46.841Z,9.22
2022-11-17T05:57:33.825Z,9.21
2022-11-17T05:58:33.615Z,9.24
2022-11-17T05:59:27.995Z,9.24
2022-11-17T06:00:15.414Z,9.27
2022-11-17T06:01:22.968Z,9.28
2022-11-17T06:02:23.510Z,9.35
2022-11-17T06:03:18.100Z,9.29
2022-11-17T06:04:07.811Z,9.25
2022-11-17T06:04:54.331Z,9.23
2022-11-17T06:05:40.955Z,9.22
2022-11-17T06:06:29.821Z,9.21
2022-11-17T06:07:20.463Z,9.23
2022-11-17T06:08:07.074Z,9.25
2022-11-17T06:08:53.998Z,9.24
2022-11-17T06:09:42.265Z,9.24
2022-11-17T06:10:29.242Z,9.21
2022-11-17T06:11:16.870Z,9.25
2022-11-17T06:12:06.167Z,9.24
2022-11-17T06:12:53.080Z,9.21
2022-11-17T06:13:39.580Z,9.21
2022-11-17T06:14:26.267Z,9.19
2022-11-17T06:15:12.903Z,9.19
2022-11-17T06:16:04.414Z,9.17
2022-11-17T06:16:56.871Z,9.19
2022-11-17T06:17:56.030Z,9.18
2022-11-17T06:18:55.305Z,9.20
2022-11-17T06:19:48.326Z,9.24
2022-11-17T06:20:41.366Z,9.27
2022-11-17T06:21:43.199Z,9.28
2022-11-17T06:22:36.239Z,9.35
2022-11-17T06:23:28.694Z,9.38
2022-11-17T06:24:15.963Z,9.33
2022-11-17T06:25:05.264Z,9.33
2022-11-17T06:25:51.984Z,9.33
2022-11-17T06:26:41.373Z,9.30
2022-11-17T06:27:31.981Z,9.25
2022-11-17T06:28:22.358Z,9.28
2022-11-17T06:29:11.291Z,9.25
2022-11-17T06:30:01.596Z,9.22
2022-11-17T06:30:50.409Z,9.33
2022-11-17T06:31:40.816Z,9.31
2022-11-17T06:32:28.564Z,9.28
2022-11-17T06:33:19.328Z,9.25
2022-11-17T06:34:06.476Z,9.21
2022-11-17T06:34:56.342Z,9.19
2022-11-17T06:35:45.605Z,9.25
2022-11-17T06:36:33.348Z,9.21
2022-11-17T06:37:20.394Z,9.20
2022-11-17T06:38:06.887Z,9.17
2022-11-17T06:38:53.369Z,9.23
2022-11-17T06:39:39.833Z,9.25
2022-11-17T06:40:27.147Z,9.29
2022-11-17T06:41:14.210Z,9.22
2022-11-17T06:42:00.747Z,9.22
2022-11-17T06:43:09.353Z,9.19
2022-11-17T06:43:56.263Z,9.18
2022-11-17T06:44:42.871Z,9.16
2022-11-17T06:45:34.025Z,9.15
2022-11-17T06:46:20.828Z,9.15
2022-11-17T06:47:07.389Z,9.11
2022-11-17T06:47:54.352Z,9.14
2022-11-17T06:48:41.042Z,9.13
2022-11-17T06:49:27.670Z,9.20
2022-11-17T06:50:14.191Z,9.18
2022-11-17T06:51:05.123Z,9.16
2022-11-17T06:51:51.745Z,9.21
2022-11-17T06:52:39.106Z,9.20
2022-11-17T06:53:26.778Z,9.21
2022-11-17T06:54:14.626Z,9.20
2022-11-17T06:55:01.491Z,9.22
2022-11-17T06:56:08.196Z,9.22
2022-11-17T06:56:55.506Z,9.19
2022-11-17T06:57:42.054Z,9.14
2022-11-17T06:58:29.952Z,9.14
2022-11-17T06:59:17.842Z,9.12
2022-11-17T07:00:06.324Z,9.11
2022-11-17T07:00:53.970Z,9.13
2022-11-17T07:01:40.691Z,9.18
2022-11-17T07:02:27.154Z,9.19
2022-11-17T07:03:13.706Z,9.19
2022-11-17T07:04:00.349Z,9.15
2022-11-17T07:04:46.785Z,9.25
2022-11-17T07:05:35.285Z,9.26
2022-11-17T07:06:22.026Z,9.24
2022-11-17T07:07:08.654Z,9.20
2022-11-17T07:08:04.206Z,9.17
2022-11-17T07:08:51.208Z,9.19
2022-11-17T07:09:37.673Z,9.22
2022-11-17T07:10:24.433Z,9.22
2022-11-17T07:11:15.360Z,9.20
2022-11-17T07:12:02.342Z,9.25
2022-11-17T07:12:48.983Z,9.31
2022-11-17T07:13:36.749Z,9.32
2022-11-17T07:14:23.252Z,9.32
2022-11-17T07:15:10.106Z,9.29
2022-11-17T07:16:03.717Z,9.29
2022-11-17T07:17:01.684Z,9.29
2022-11-17T07:17:48.736Z,9.28
2022-11-17T07:18:37.191Z,9.29
2022-11-17T07:19:24.164Z,9.34
2022-11-17T07:20:11.976Z,9.39
2022-11-17T07:21:05.189Z,9.36
2022-11-17T07:21:51.676Z,9.33
2022-11-17T07:22:38.212Z,9.30
2022-11-17T07:23:24.812Z,9.37
2022-11-17T07:24:11.371Z,9.34
2022-11-17T07:24:57.841Z,9.32
2022-11-17T07:25:44.326Z,9.31
2022-11-17T07:26:30.746Z,9.32
2022-11-17T07:27:18.196Z,9.32
2022-11-17T07:28:05.267Z,9.37
2022-11-17T07:28:51.690Z,9.40
2022-11-17T07:29:38.350Z,9.40
2022-11-17T07:30:25.522Z,9.37
2022-11-17T07:31:12.494Z,9.33
2022-11-17T07:31:59.076Z,9.33
2022-11-17T07:32:48.449Z,9.33
2022-11-17T07:33:38.603Z,9.34
2022-11-17T07:34:25.057Z,9.34
2022-11-17T07:35:11.562Z,9.35
2022-11-17T07:36:06.042Z,9.37
2022-11-17T07:36:52.701Z,9.38
2022-11-17T07:37:39.253Z,9.35
2022-11-17T07:38:25.714Z,9.34
2022-11-17T07:39:15.951Z,9.34
2022-11-17T07:40:05.465Z,9.32
2022-11-17T07:40:52.066Z,9.30
2022-11-17T07:41:38.527Z,9.29
2022-11-17T07:42:24.956Z,9.31
2022-11-17T07:43:12.979Z,9.33
2022-11-17T07:43:59.809Z,9.33
2022-11-17T07:44:46.218Z,9.33
2022-11-17T07:45:32.894Z,9.40
2022-11-17T07:46:19.395Z,9.37
2022-11-17T07:47:06.097Z,9.38
2022-11-17T07:47:54.609Z,9.41
2022-11-17T07:48:42.597Z,9.42
2022-11-17T07:49:29.229Z,9.39
2022-11-17T07:50:16.277Z,9.37
2022-11-17T07:51:03.470Z,9.38
2022-11-17T07:51:50.069Z,9.40
2022-11-17T07:52:41.251Z,9.40
2022-11-17T07:53:28.855Z,9.40
2022-11-17T07:54:15.379Z,9.40
2022-11-17T07:55:01.997Z,9.42
2022-11-17T07:55:48.447Z,9.45
2022-11-17T07:56:35.018Z,9.49
2022-11-17T07:57:21.753Z,9.49
2022-11-17T07:58:08.233Z,9.54
2022-11-17T07:58:54.949Z,9.59
2022-11-17T07:59:41.655Z,9.62
2022-11-17T08:00:29.989Z,9.59
2022-11-17T08:01:16.664Z,9.56
2022-11-17T08:02:03.463Z,9.53
2022-11-17T08:02:50.435Z,9.59
2022-11-17T08:03:37.106Z,9.55
2022-11-17T08:04:23.857Z,9.53
2022-11-17T08:05:10.587Z,9.57
2022-11-17T08:05:57.845Z,9.58
2022-11-17T08:06:45.858Z,9.56
2022-11-17T08:07:32.869Z,9.60
2022-11-17T08:08:19.787Z,9.55
2022-11-17T08:09:07.141Z,9.55
2022-11-17T08:09:53.595Z,9.54
2022-11-17T08:10:40.420Z,9.54
2022-11-17T08:11:26.845Z,9.54
2022-11-17T08:12:13.432Z,9.52
2022-11-17T08:13:00.857Z,9.52
2022-11-17T08:13:47.590Z,9.53
2022-11-17T08:14:34.031Z,9.51
2022-11-17T08:15:22.074Z,9.52
2022-11-17T08:16:10.700Z,9.52
2022-11-17T08:16:57.132Z,9.53
2022-11-17T08:17:43.859Z,9.53
2022-11-17T08:18:30.386Z,9.49
2022-11-17T08:19:17.042Z,9.47
2022-11-17T08:20:04.994Z,9.50
2022-11-17T08:20:51.867Z,9.47
2022-11-17T08:21:38.478Z,9.52
2022-11-17T08:22:25.117Z,9.51
2022-11-17T08:23:11.731Z,9.54
2022-11-17T08:23:58.273Z,9.55
2022-11-17T08:24:44.879Z,9.57
2022-11-17T08:25:31.352Z,9.57
2022-11-17T08:26:20.520Z,9.59
2022-11-17T08:27:07.286Z,9.59
2022-11-17T08:27:58.108Z,9.59
2022-11-17T08:28:44.645Z,9.61
2022-11-17T08:29:31.089Z,9.68
2022-11-17T08:30:20.304Z,9.66
2022-11-17T08:31:08.039Z,9.67
2022-11-17T08:31:54.524Z,9.71
2022-11-17T08:32:51.963Z,9.76
2022-11-17T08:33:38.566Z,9.73
2022-11-17T08:34:24.979Z,9.74
2022-11-17T08:35:11.852Z,9.75
2022-11-17T08:36:00.329Z,9.75
2022-11-17T08:36:46.984Z,9.78
2022-11-17T08:37:33.484Z,9.81
2022-11-17T08:38:20.114Z,9.81
2022-11-17T08:39:06.762Z,9.83
2022-11-17T08:39:53.259Z,9.81
2022-11-17T08:40:40.363Z,9.78
2022-11-17T08:41:27.062Z,9.78
2022-11-17T08:42:13.645Z,9.77
2022-11-17T08:43:01.415Z,9.73
2022-11-17T08:43:48.154Z,9.76
2022-11-17T08:44:34.613Z,9.78
2022-11-17T08:45:22.221Z,9.76
2022-11-17T08:46:12.641Z,9.77
2022-11-17T08:46:59.237Z,9.79
2022-11-17T08:47:46.032Z,9.79
2022-11-17T08:48:33.343Z,9.78
2022-11-17T08:49:20.015Z,9.83
2022-11-17T08:50:07.057Z,9.85
2022-11-17T08:50:53.494Z,9.88
2022-11-17T08:51:39.909Z,9.88
2022-11-17T08:52:29.386Z,9.87
2022-11-17T08:53:18.425Z,9.89
2022-11-17T08:54:05.159Z,9.91
2022-11-17T08:54:52.543Z,9.96
2022-11-17T08:55:41.162Z,9.98
2022-11-17T08:56:28.117Z,10.03
2022-11-17T08:57:14.671Z,10.03
2022-11-17T08:58:01.147Z,10.05
2022-11-17T08:58:47.720Z,10.14
2022-11-17T08:59:34.161Z,10.16
2022-11-17T09:00:21.757Z,10.17
2022-11-17T09:01:10.482Z,10.16
2022-11-17T09:01:57.999Z,10.17
2022-11-17T09:02:45.977Z,10.19
2022-11-17T09:03:32.415Z,10.20
2022-11-17T09:04:19.415Z,10.22
2022-11-17T09:05:06.930Z,10.22
2022-11-17T09:05:53.499Z,10.20
2022-11-17T09:06:40.145Z,10.20
2022-11-17T09:07:30.577Z,10.25
2022-11-17T09:08:44.342Z,10.25
2022-11-17T09:09:26.468Z,10.24
2022-11-17T09:10:13.073Z,10.23
2022-11-17T09:11:05.101Z,10.23
2022-11-17T09:11:51.560Z,10.23
2022-11-17T09:12:38.309Z,10.24
2022-11-17T09:13:24.974Z,10.23
2022-11-17T09:14:11.613Z,10.27
2022-11-17T09:14:58.065Z,10.28
2022-11-17T09:15:44.781Z,10.32
2022-11-17T09:16:31.295Z,10.35
2022-11-17T09:17:17.761Z,10.36
2022-11-17T09:18:04.545Z,10.42
2022-11-17T09:18:57.034Z,10.51
2022-11-17T09:19:43.500Z,10.52
2022-11-17T09:20:31.829Z,10.56
2022-11-17T09:21:18.346Z,10.62
2022-11-17T09:22:06.339Z,10.66
2022-11-17T09:22:52.815Z,10.69
2022-11-17T09:23:39.876Z,10.65
2022-11-17T09:24:26.927Z,10.70
2022-11-17T09:25:14.545Z,10.75
2022-11-17T09:26:07.392Z,10.77
2022-11-17T09:26:57.433Z,10.80
2022-11-17T09:27:44.910Z,10.87
2022-11-17T09:28:31.676Z,10.91
2022-11-17T09:29:18.233Z,10.98
2022-11-17T09:30:05.609Z,11.05
2022-11-17T09:30:52.687Z,11.11
2022-11-17T09:31:39.282Z,11.12
2022-11-17T09:32:25.747Z,11.12
2022-11-17T09:33:12.214Z,11.18
2022-11-17T09:34:02.203Z,11.21
2022-11-17T09:34:51.697Z,11.24
2022-11-17T09:35:38.418Z,11.29
2022-11-17T09:36:24.844Z,11.31
2022-11-17T09:37:11.429Z,11.30
2022-11-17T09:38:01.633Z,11.37
2022-11-17T09:38:48.534Z,11.44
2022-11-17T09:39:35.007Z,11.45
2022-11-17T09:40:21.569Z,11.46
2022-11-17T09:41:26.441Z,11.44
2022-11-17T09:42:15.788Z,11.47
2022-11-17T09:43:09.000Z,11.51
2022-11-17T09:44:10.137Z,11.51
2022-11-17T09:45:24.986Z,11.53
2022-11-17T09:46:27.480Z,11.58
2022-11-17T09:47:40.996Z,11.60
2022-11-17T09:48:44.208Z,11.66
2022-11-17T09:50:00.898Z,11.77
2022-11-17T09:50:54.659Z,11.78
2022-11-17T09:51:46.296Z,11.82
2022-11-17T09:52:45.756Z,11.85
2022-11-17T09:53:54.055Z,11.85
2022-11-17T09:54:51.328Z,11.90
2022-11-17T09:55:49.985Z,11.90
2022-11-17T09:56:36.806Z,11.90
2022-11-17T09:57:47.187Z,11.95
2022-11-17T09:58:53.475Z,11.91
2022-11-17T09:59:40.549Z,11.91
2022-11-17T10:00:28.607Z,12.00
2022-11-17T10:01:18.197Z,12.02
2022-11-17T10:02:10.114Z,11.95
2022-11-17T10:02:56.672Z,11.96
2022-11-17T10:03:46.351Z,11.95
2022-11-17T10:04:34.024Z,11.91
2022-11-17T10:05:31.199Z,11.97
2022-11-17T10:06:21.753Z,11.98
2022-11-17T10:07:09.638Z,11.97
2022-11-17T10:08:03.465Z,12.02
2022-11-17T10:09:02.866Z,12.02
2022-11-17T10:09:52.825Z,12.00
2022-11-17T10:10:49.548Z,11.94
2022-11-17T10:11:41.281Z,11.93
2022-11-17T10:12:38.881Z,11.90
2022-11-17T10:13:31.973Z,11.87
2022-11-17T10:14:21.965Z,11.86
2022-11-17T10:15:25.996Z,11.90
2022-11-17T10:16:14.190Z,11.93
2022-11-17T10:17:00.760Z,11.95
2022-11-17T10:17:47.240Z,11.95
2022-11-17T10:18:39.052Z,11.90
2022-11-17T10:19:28.957Z,11.89
2022-11-17T10:20:18.536Z,11.95
2022-11-17T10:21:06.942Z,11.93
2022-11-17T10:21:58.981Z,11.97
2022-11-17T10:22:47.707Z,11.93
2022-11-17T10:23:44.578Z,11.91
2022-11-17T10:24:48.020Z,11.97
2022-11-17T10:25:40.892Z,12.03
2022-11-17T10:26:28.209Z,12.08
2022-11-17T10:27:18.039Z,12.10
2022-11-17T10:28:08.061Z,12.13
2022-11-17T10:29:09.081Z,12.07
2022-11-17T10:29:57.219Z,12.07
2022-11-17T10:30:53.737Z,11.94
2022-11-17T10:31:43.433Z,12.00
2022-11-17T10:32:48.707Z,12.02
2022-11-17T10:33:47.904Z,12.05
2022-11-17T10:34:41.465Z,12.09
2022-11-17T10:35:31.975Z,12.18
2022-11-17T10:36:29.134Z,12.12
2022-11-17T10:37:23.592Z,12.12
2022-11-17T10:38:22.853Z,12.12
2022-11-17T10:39:36.814Z,12.15
2022-11-17T10:40:31.618Z,12.07
2022-11-17T10:41:23.720Z,12.07
2022-11-17T10:42:28.573Z,12.09
2022-11-17T10:43:16.878Z,12.10
2022-11-17T10:44:17.488Z,12.16
2022-11-17T10:45:05.376Z,12.23
2022-11-17T10:46:06.789Z,12.26
2022-11-17T10:47:03.930Z,12.28
2022-11-17T10:47:51.415Z,12.34
2022-11-17T10:48:40.901Z,12.34
2022-11-17T10:49:33.230Z,12.31
2022-11-17T10:50:24.853Z,12.28
2022-11-17T10:51:19.384Z,12.31
2022-11-17T10:52:15.775Z,12.28
2022-11-17T10:53:45.682Z,12.24
2022-11-17T10:54:33.410Z,12.18
2022-11-17T10:55:31.539Z,12.29
2022-11-17T10:56:21.557Z,12.24
2022-11-17T10:57:16.879Z,12.22
2022-11-17T10:58:26.403Z,12.31
2022-11-17T10:59:28.797Z,12.29
2022-11-17T11:00:33.707Z,12.25
2022-11-17T11:01:29.302Z,12.29
2022-11-17T11:02:30.307Z,12.28
2022-11-17T11:03:22.918Z,12.20
2022-11-17T11:04:35.483Z,12.18
2022-11-17T11:05:22.145Z,12.24
2022-11-17T11:06:24.483Z,12.28
2022-11-17T11:07:23.281Z,12.31
2022-11-17T11:08:19.551Z,12.34
2022-11-17T11:09:20.769Z,12.41
2022-11-17T11:10:10.342Z,12.40
2022-11-17T11:11:00.200Z,12.38
2022-11-17T11:11:49.725Z,12.32
2022-11-17T11:13:04.133Z,12.36
2022-11-17T11:14:02.057Z,12.33
2022-11-17T11:14:56.036Z,12.38
2022-11-17T11:15:42.705Z,12.41
2022-11-17T11:16:30.222Z,12.43
2022-11-17T11:17:18.271Z,12.37
2022-11-17T11:18:14.352Z,12.43
2022-11-17T11:19:00.889Z,12.50
2022-11-17T11:19:52.553Z,12.49
2022-11-17T11:20:59.971Z,12.30
2022-11-17T11:22:05.060Z,12.37
2022-11-17T11:23:00.665Z,12.43